sensor_id;sensor_type;location;lat;lon;timestamp;temperature;humidity
7117;DHT22;3600;48.568;7.870;2022-08-19T00:01:29;21.10;99.90
7117;DHT22;3600;48.568;7.870;2022-08-19T00:04:02;21.00;99.90
7117;DHT22;3600;48.568;7.870;2022-08-19T00:06:30;21.10;99.90
7117;DHT22;3600;48.568;7.870;2022-08-19T00:08:58;21.00;99.90
7117;DHT22;3600;48.568;7.870;2022-08-19T00:11:27;21.00;99.90
7117;DHT22;3600;48.568;7.870;2022-08-19T00:13:55;21.00;99.90
7117;DHT22;3600;48.568;7.870;2022-08-19T00:16:24;20.90;99.90
7117;DHT22;3600;48.568;7.870;2022-08-19T00:18:53;20.90;99.90
7117;DHT22;3600;48.568;7.870;2022-08-19T00:21:20;20.90;99.90
7117;DHT22;3600;48.568;7.870;2022-08-19T00:23:47;20.90;99.90
7117;DHT22;3600;48.568;7.870;2022-08-19T00:26:14;21.00;99.90
7117;DHT22;3600;48.568;7.870;2022-08-19T00:28:40;20.90;99.90
7117;DHT22;3600;48.568;7.870;2022-08-19T00:31:08;20.90;99.90
7117;DHT22;3600;48.568;7.870;2022-08-19T00:33:35;20.90;99.90
7117;DHT22;3600;48.568;7.870;2022-08-19T00:36:06;20.90;99.90
7117;DHT22;3600;48.568;7.870;2022-08-19T00:38:34;20.90;99.90
7117;DHT22;3600;48.568;7.870;2022-08-19T00:41:05;20.90;99.90
7117;DHT22;3600;48.568;7.870;2022-08-19T00:43:33;20.90;99.90
7117;DHT22;3600;48.568;7.870;2022-08-19T00:46:00;20.90;99.90
7117;DHT22;3600;48.568;7.870;2022-08-19T00:48:32;20.90;99.90
7117;DHT22;3600;48.568;7.870;2022-08-19T00:51:00;20.90;99.90
7117;DHT22;3600;48.568;7.870;2022-08-19T00:53:31;20.90;99.90
7117;DHT22;3600;48.568;7.870;2022-08-19T00:56:00;20.90;99.90
7117;DHT22;3600;48.568;7.870;2022-08-19T00:58:31;20.90;99.90
7117;DHT22;3600;48.568;7.870;2022-08-19T01:01:00;20.90;99.90
7117;DHT22;3600;48.568;7.870;2022-08-19T01:03:28;20.90;99.90
7117;DHT22;3600;48.568;7.870;2022-08-19T01:06:18;20.90;99.90
7117;DHT22;3600;48.568;7.870;2022-08-19T01:08:46;20.90;99.90
7117;DHT22;3600;48.568;7.870;2022-08-19T01:11:16;20.90;99.90
7117;DHT22;3600;48.568;7.870;2022-08-19T01:13:43;20.80;99.90
7117;DHT22;3600;48.568;7.870;2022-08-19T01:16:17;20.70;99.90
7117;DHT22;3600;48.568;7.870;2022-08-19T01:18:46;20.70;99.90
7117;DHT22;3600;48.568;7.870;2022-08-19T01:21:31;20.70;99.90
7117;DHT22;3600;48.568;7.870;2022-08-19T01:23:58;20.70;99.90
7117;DHT22;3600;48.568;7.870;2022-08-19T01:26:27;20.70;99.90
7117;DHT22;3600;48.568;7.870;2022-08-19T01:28:58;20.70;99.90
7117;DHT22;3600;48.568;7.870;2022-08-19T01:31:28;20.70;99.90
7117;DHT22;3600;48.568;7.870;2022-08-19T01:34:00;20.70;99.90
7117;DHT22;3600;48.568;7.870;2022-08-19T01:36:37;20.70;99.90
7117;DHT22;3600;48.568;7.870;2022-08-19T01:39:11;20.70;99.90
7117;DHT22;3600;48.568;7.870;2022-08-19T01:41:38;20.70;99.90
7117;DHT22;3600;48.568;7.870;2022-08-19T01:44:07;20.70;99.90
7117;DHT22;3600;48.568;7.870;2022-08-19T01:46:46;20.70;99.90
7117;DHT22;3600;48.568;7.870;2022-08-19T01:49:15;20.60;99.90
7117;DHT22;3600;48.568;7.870;2022-08-19T01:51:42;20.60;99.90
7117;DHT22;3600;48.568;7.870;2022-08-19T01:54:12;20.60;99.90
7117;DHT22;3600;48.568;7.870;2022-08-19T01:56:50;20.60;99.90
7117;DHT22;3600;48.568;7.870;2022-08-19T01:59:19;20.60;99.90
7117;DHT22;3600;48.568;7.870;2022-08-19T02:01:47;20.60;99.90
7117;DHT22;3600;48.568;7.870;2022-08-19T02:04:14;20.60;99.90
7117;DHT22;3600;48.568;7.870;2022-08-19T02:06:41;20.60;99.90
7117;DHT22;3600;48.568;7.870;2022-08-19T02:09:08;20.60;99.90
7117;DHT22;3600;48.568;7.870;2022-08-19T02:11:36;20.60;99.90
7117;DHT22;3600;48.568;7.870;2022-08-19T02:14:06;20.60;99.90
7117;DHT22;3600;48.568;7.870;2022-08-19T02:16:33;20.50;99.90
7117;DHT22;3600;48.568;7.870;2022-08-19T02:19:00;20.50;99.90
7117;DHT22;3600;48.568;7.870;2022-08-19T02:21:28;20.50;99.90
7117;DHT22;3600;48.568;7.870;2022-08-19T02:23:55;20.50;99.90
7117;DHT22;3600;48.568;7.870;2022-08-19T02:26:23;20.50;99.90
7117;DHT22;3600;48.568;7.870;2022-08-19T02:28:50;20.50;99.90
7117;DHT22;3600;48.568;7.870;2022-08-19T02:31:19;20.50;99.90
7117;DHT22;3600;48.568;7.870;2022-08-19T02:33:47;20.50;99.90
7117;DHT22;3600;48.568;7.870;2022-08-19T02:36:15;20.50;99.90
7117;DHT22;3600;48.568;7.870;2022-08-19T02:38:47;20.60;99.90
7117;DHT22;3600;48.568;7.870;2022-08-19T02:41:23;20.60;99.90
7117;DHT22;3600;48.568;7.870;2022-08-19T02:43:56;20.50;99.90
7117;DHT22;3600;48.568;7.870;2022-08-19T02:46:46;20.50;99.90
7117;DHT22;3600;48.568;7.870;2022-08-19T02:49:13;20.50;99.90
7117;DHT22;3600;48.568;7.870;2022-08-19T02:51:44;20.50;99.90
7117;DHT22;3600;48.568;7.870;2022-08-19T02:54:13;20.50;99.90
7117;DHT22;3600;48.568;7.870;2022-08-19T02:56:42;20.50;99.90
7117;DHT22;3600;48.568;7.870;2022-08-19T02:59:09;20.20;99.90
7117;DHT22;3600;48.568;7.870;2022-08-19T03:01:39;20.20;99.90
7117;DHT22;3600;48.568;7.870;2022-08-19T03:04:08;20.30;99.90
7117;DHT22;3600;48.568;7.870;2022-08-19T03:06:38;20.30;99.90
7117;DHT22;3600;48.568;7.870;2022-08-19T03:09:06;20.30;99.90
7117;DHT22;3600;48.568;7.870;2022-08-19T03:11:33;20.40;99.90
7117;DHT22;3600;48.568;7.870;2022-08-19T03:14:02;20.30;99.90
7117;DHT22;3600;48.568;7.870;2022-08-19T03:16:32;20.30;99.90
7117;DHT22;3600;48.568;7.870;2022-08-19T03:19:00;20.40;99.90
7117;DHT22;3600;48.568;7.870;2022-08-19T03:21:30;20.40;99.90
7117;DHT22;3600;48.568;7.870;2022-08-19T03:24:00;20.30;99.90
7117;DHT22;3600;48.568;7.870;2022-08-19T03:26:27;20.30;99.90
7117;DHT22;3600;48.568;7.870;2022-08-19T03:28:55;20.30;99.90
7117;DHT22;3600;48.568;7.870;2022-08-19T03:31:25;20.30;99.90
7117;DHT22;3600;48.568;7.870;2022-08-19T03:34:22;20.30;99.90
7117;DHT22;3600;48.568;7.870;2022-08-19T03:36:54;20.40;99.90
7117;DHT22;3600;48.568;7.870;2022-08-19T03:39:22;20.40;99.90
7117;DHT22;3600;48.568;7.870;2022-08-19T03:41:50;20.40;99.90
7117;DHT22;3600;48.568;7.870;2022-08-19T03:44:37;20.40;99.90
7117;DHT22;3600;48.568;7.870;2022-08-19T03:47:05;20.40;99.90
7117;DHT22;3600;48.568;7.870;2022-08-19T03:49:32;20.30;99.90
7117;DHT22;3600;48.568;7.870;2022-08-19T03:52:03;20.30;99.90
7117;DHT22;3600;48.568;7.870;2022-08-19T03:54:34;20.30;99.90
7117;DHT22;3600;48.568;7.870;2022-08-19T03:57:02;20.30;99.90
7117;DHT22;3600;48.568;7.870;2022-08-19T03:59:32;20.30;99.90
7117;DHT22;3600;48.568;7.870;2022-08-19T04:02:01;20.30;99.90
7117;DHT22;3600;48.568;7.870;2022-08-19T04:04:28;20.30;99.90
7117;DHT22;3600;48.568;7.870;2022-08-19T04:06:57;20.30;99.90
7117;DHT22;3600;48.568;7.870;2022-08-19T04:09:24;20.30;99.90
7117;DHT22;3600;48.568;7.870;2022-08-19T04:11:53;20.40;99.90
7117;DHT22;3600;48.568;7.870;2022-08-19T04:14:24;20.30;99.90
7117;DHT22;3600;48.568;7.870;2022-08-19T04:16:52;20.30;99.90
7117;DHT22;3600;48.568;7.870;2022-08-19T04:19:19;20.30;99.90
7117;DHT22;3600;48.568;7.870;2022-08-19T04:21:48;20.30;99.90
7117;DHT22;3600;48.568;7.870;2022-08-19T04:24:16;20.30;99.90
7117;DHT22;3600;48.568;7.870;2022-08-19T04:26:44;20.30;99.90
7117;DHT22;3600;48.568;7.870;2022-08-19T04:29:21;20.40;99.90
7117;DHT22;3600;48.568;7.870;2022-08-19T04:31:48;20.30;99.90
7117;DHT22;3600;48.568;7.870;2022-08-19T04:34:18;20.30;99.90
7117;DHT22;3600;48.568;7.870;2022-08-19T04:36:49;20.30;99.90
7117;DHT22;3600;48.568;7.870;2022-08-19T04:39:20;20.30;99.90
7117;DHT22;3600;48.568;7.870;2022-08-19T04:41:48;20.30;99.90
7117;DHT22;3600;48.568;7.870;2022-08-19T04:44:34;20.30;99.90
7117;DHT22;3600;48.568;7.870;2022-08-19T04:47:05;20.20;99.90
7117;DHT22;3600;48.568;7.870;2022-08-19T04:49:37;20.20;99.90
7117;DHT22;3600;48.568;7.870;2022-08-19T04:52:04;20.20;99.90
7117;DHT22;3600;48.568;7.870;2022-08-19T04:54:30;20.20;99.90
7117;DHT22;3600;48.568;7.870;2022-08-19T04:57:08;20.20;99.90
7117;DHT22;3600;48.568;7.870;2022-08-19T04:59:38;20.20;99.90
7117;DHT22;3600;48.568;7.870;2022-08-19T05:02:07;20.20;99.90
7117;DHT22;3600;48.568;7.870;2022-08-19T05:04:35;20.20;99.90
7117;DHT22;3600;48.568;7.870;2022-08-19T05:07:06;20.20;99.90
7117;DHT22;3600;48.568;7.870;2022-08-19T05:09:34;20.20;99.90
7117;DHT22;3600;48.568;7.870;2022-08-19T05:12:21;20.20;99.90
7117;DHT22;3600;48.568;7.870;2022-08-19T05:14:54;20.20;99.90
7117;DHT22;3600;48.568;7.870;2022-08-19T05:17:24;20.20;99.90
7117;DHT22;3600;48.568;7.870;2022-08-19T05:19:55;20.20;99.90
7117;DHT22;3600;48.568;7.870;2022-08-19T05:22:43;20.20;99.90
7117;DHT22;3600;48.568;7.870;2022-08-19T05:25:13;20.20;99.90
7117;DHT22;3600;48.568;7.870;2022-08-19T05:27:41;20.30;99.90
7117;DHT22;3600;48.568;7.870;2022-08-19T05:30:09;20.30;99.90
7117;DHT22;3600;48.568;7.870;2022-08-19T05:32:37;20.30;99.90
7117;DHT22;3600;48.568;7.870;2022-08-19T05:35:05;20.40;99.90
7117;DHT22;3600;48.568;7.870;2022-08-19T05:37:32;20.40;99.90
7117;DHT22;3600;48.568;7.870;2022-08-19T05:39:59;20.30;99.90
7117;DHT22;3600;48.568;7.870;2022-08-19T05:42:26;20.30;99.90
7117;DHT22;3600;48.568;7.870;2022-08-19T05:44:53;20.40;99.90
7117;DHT22;3600;48.568;7.870;2022-08-19T05:47:20;20.40;99.90
7117;DHT22;3600;48.568;7.870;2022-08-19T05:49:48;20.40;99.90
7117;DHT22;3600;48.568;7.870;2022-08-19T05:52:16;20.40;99.90
7117;DHT22;3600;48.568;7.870;2022-08-19T05:54:45;20.50;99.90
7117;DHT22;3600;48.568;7.870;2022-08-19T05:57:18;20.50;99.90
7117;DHT22;3600;48.568;7.870;2022-08-19T05:59:45;20.50;99.90
7117;DHT22;3600;48.568;7.870;2022-08-19T06:02:23;20.50;99.90
7117;DHT22;3600;48.568;7.870;2022-08-19T06:04:50;20.50;99.90
7117;DHT22;3600;48.568;7.870;2022-08-19T06:07:17;20.50;99.90
7117;DHT22;3600;48.568;7.870;2022-08-19T06:09:43;20.50;99.90
7117;DHT22;3600;48.568;7.870;2022-08-19T06:12:28;20.30;99.90
7117;DHT22;3600;48.568;7.870;2022-08-19T06:15:08;20.30;99.90
7117;DHT22;3600;48.568;7.870;2022-08-19T06:17:35;20.30;99.90
7117;DHT22;3600;48.568;7.870;2022-08-19T06:20:08;20.40;99.90
7117;DHT22;3600;48.568;7.870;2022-08-19T06:22:40;20.40;99.90
7117;DHT22;3600;48.568;7.870;2022-08-19T06:25:08;20.50;99.90
7117;DHT22;3600;48.568;7.870;2022-08-19T06:27:36;20.50;99.90
7117;DHT22;3600;48.568;7.870;2022-08-19T06:30:14;20.50;99.90
7117;DHT22;3600;48.568;7.870;2022-08-19T06:32:41;20.50;99.90
7117;DHT22;3600;48.568;7.870;2022-08-19T06:35:08;20.60;99.90
7117;DHT22;3600;48.568;7.870;2022-08-19T06:37:37;20.50;99.90
7117;DHT22;3600;48.568;7.870;2022-08-19T06:40:09;20.50;99.90
7117;DHT22;3600;48.568;7.870;2022-08-19T06:42:37;20.50;99.90
7117;DHT22;3600;48.568;7.870;2022-08-19T06:45:10;20.50;99.90
7117;DHT22;3600;48.568;7.870;2022-08-19T06:47:37;20.40;99.90
7117;DHT22;3600;48.568;7.870;2022-08-19T06:50:04;20.40;99.90
7117;DHT22;3600;48.568;7.870;2022-08-19T06:52:33;20.40;99.90
7117;DHT22;3600;48.568;7.870;2022-08-19T06:55:06;20.40;99.90
7117;DHT22;3600;48.568;7.870;2022-08-19T06:57:33;20.40;99.90
7117;DHT22;3600;48.568;7.870;2022-08-19T07:00:01;20.40;99.90
7117;DHT22;3600;48.568;7.870;2022-08-19T07:02:28;20.30;99.90
7117;DHT22;3600;48.568;7.870;2022-08-19T07:04:55;20.50;99.90
7117;DHT22;3600;48.568;7.870;2022-08-19T07:07:24;20.50;99.90
7117;DHT22;3600;48.568;7.870;2022-08-19T07:09:51;20.40;99.90
7117;DHT22;3600;48.568;7.870;2022-08-19T07:12:28;20.40;99.90
7117;DHT22;3600;48.568;7.870;2022-08-19T07:14:57;20.40;99.90
7117;DHT22;3600;48.568;7.870;2022-08-19T07:17:24;20.40;99.90
7117;DHT22;3600;48.568;7.870;2022-08-19T07:19:52;20.50;99.90
7117;DHT22;3600;48.568;7.870;2022-08-19T07:22:20;20.60;99.90
7117;DHT22;3600;48.568;7.870;2022-08-19T07:24:50;20.50;99.90
7117;DHT22;3600;48.568;7.870;2022-08-19T07:27:18;20.50;99.90
7117;DHT22;3600;48.568;7.870;2022-08-19T07:29:52;20.50;99.90
7117;DHT22;3600;48.568;7.870;2022-08-19T07:32:22;20.50;99.90
7117;DHT22;3600;48.568;7.870;2022-08-19T07:34:49;20.50;99.90
7117;DHT22;3600;48.568;7.870;2022-08-19T07:37:16;20.60;99.90
7117;DHT22;3600;48.568;7.870;2022-08-19T07:39:42;20.50;99.90
7117;DHT22;3600;48.568;7.870;2022-08-19T07:42:10;20.60;99.90
7117;DHT22;3600;48.568;7.870;2022-08-19T07:44:40;20.60;99.90
7117;DHT22;3600;48.568;7.870;2022-08-19T07:47:07;20.70;99.90
7117;DHT22;3600;48.568;7.870;2022-08-19T07:49:54;20.70;99.90
7117;DHT22;3600;48.568;7.870;2022-08-19T07:52:21;20.80;99.90
7117;DHT22;3600;48.568;7.870;2022-08-19T07:54:48;20.90;99.90
7117;DHT22;3600;48.568;7.870;2022-08-19T07:57:16;20.90;99.90
7117;DHT22;3600;48.568;7.870;2022-08-19T07:59:43;20.90;99.90
7117;DHT22;3600;48.568;7.870;2022-08-19T08:02:10;20.90;99.90
7117;DHT22;3600;48.568;7.870;2022-08-19T08:04:36;20.90;99.90
7117;DHT22;3600;48.568;7.870;2022-08-19T08:07:22;20.90;99.90
7117;DHT22;3600;48.568;7.870;2022-08-19T08:10:12;20.90;99.90
7117;DHT22;3600;48.568;7.870;2022-08-19T08:12:47;20.90;99.90
7117;DHT22;3600;48.568;7.870;2022-08-19T08:15:34;21.00;99.90
7117;DHT22;3600;48.568;7.870;2022-08-19T08:18:07;21.00;99.90
7117;DHT22;3600;48.568;7.870;2022-08-19T08:20:34;21.00;99.90
7117;DHT22;3600;48.568;7.870;2022-08-19T08:23:01;21.00;99.90
7117;DHT22;3600;48.568;7.870;2022-08-19T08:25:46;21.00;99.90
7117;DHT22;3600;48.568;7.870;2022-08-19T08:28:16;21.00;99.90
7117;DHT22;3600;48.568;7.870;2022-08-19T08:30:44;21.20;99.90
7117;DHT22;3600;48.568;7.870;2022-08-19T08:33:18;21.10;99.90
7117;DHT22;3600;48.568;7.870;2022-08-19T08:36:11;21.10;99.90
7117;DHT22;3600;48.568;7.870;2022-08-19T08:38:40;21.20;99.90
7117;DHT22;3600;48.568;7.870;2022-08-19T08:41:35;21.30;99.90
7117;DHT22;3600;48.568;7.870;2022-08-19T08:44:03;21.30;99.90
7117;DHT22;3600;48.568;7.870;2022-08-19T08:46:38;21.40;99.90
7117;DHT22;3600;48.568;7.870;2022-08-19T08:49:14;21.30;99.90
7117;DHT22;3600;48.568;7.870;2022-08-19T08:51:45;21.30;99.90
7117;DHT22;3600;48.568;7.870;2022-08-19T08:54:29;21.30;99.90
7117;DHT22;3600;48.568;7.870;2022-08-19T08:56:56;21.50;99.90
7117;DHT22;3600;48.568;7.870;2022-08-19T08:59:28;21.60;99.90
7117;DHT22;3600;48.568;7.870;2022-08-19T09:01:59;21.70;99.90
7117;DHT22;3600;48.568;7.870;2022-08-19T09:04:27;21.60;99.90
7117;DHT22;3600;48.568;7.870;2022-08-19T09:10:22;21.90;99.90
7117;DHT22;3600;48.568;7.870;2022-08-19T09:15:50;21.80;99.90
7117;DHT22;3600;48.568;7.870;2022-08-19T09:18:17;21.90;99.90
7117;DHT22;3600;48.568;7.870;2022-08-19T09:20:46;22.00;99.90
7117;DHT22;3600;48.568;7.870;2022-08-19T09:23:14;22.10;99.90
7117;DHT22;3600;48.568;7.870;2022-08-19T09:25:41;22.10;99.90
7117;DHT22;3600;48.568;7.870;2022-08-19T09:28:08;22.10;99.90
7117;DHT22;3600;48.568;7.870;2022-08-19T09:30:52;22.10;99.90
7117;DHT22;3600;48.568;7.870;2022-08-19T09:33:19;22.10;99.90
7117;DHT22;3600;48.568;7.870;2022-08-19T09:35:46;22.10;99.90
7117;DHT22;3600;48.568;7.870;2022-08-19T09:38:18;22.30;99.90
7117;DHT22;3600;48.568;7.870;2022-08-19T09:40:46;22.40;99.90
7117;DHT22;3600;48.568;7.870;2022-08-19T09:43:13;22.40;99.90
7117;DHT22;3600;48.568;7.870;2022-08-19T09:45:40;22.50;99.90
7117;DHT22;3600;48.568;7.870;2022-08-19T09:48:07;22.60;99.90
7117;DHT22;3600;48.568;7.870;2022-08-19T09:50:37;22.70;99.90
7117;DHT22;3600;48.568;7.870;2022-08-19T09:53:18;22.60;99.90
7117;DHT22;3600;48.568;7.870;2022-08-19T09:55:45;22.70;99.90
7117;DHT22;3600;48.568;7.870;2022-08-19T09:58:12;22.80;99.90
7117;DHT22;3600;48.568;7.870;2022-08-19T10:00:39;23.00;99.90
7117;DHT22;3600;48.568;7.870;2022-08-19T10:03:06;23.00;99.90
7117;DHT22;3600;48.568;7.870;2022-08-19T10:05:34;23.10;99.90
7117;DHT22;3600;48.568;7.870;2022-08-19T10:08:26;23.20;99.90
7117;DHT22;3600;48.568;7.870;2022-08-19T10:10:54;23.20;99.90
7117;DHT22;3600;48.568;7.870;2022-08-19T10:13:26;23.30;99.90
7117;DHT22;3600;48.568;7.870;2022-08-19T10:15:55;23.40;99.90
7117;DHT22;3600;48.568;7.870;2022-08-19T10:18:23;23.50;99.90
7117;DHT22;3600;48.568;7.870;2022-08-19T10:20:52;23.60;99.90
7117;DHT22;3600;48.568;7.870;2022-08-19T10:23:20;23.60;99.90
7117;DHT22;3600;48.568;7.870;2022-08-19T10:25:48;23.80;99.90
7117;DHT22;3600;48.568;7.870;2022-08-19T10:28:16;23.90;99.90
7117;DHT22;3600;48.568;7.870;2022-08-19T10:30:45;23.80;99.90
7117;DHT22;3600;48.568;7.870;2022-08-19T10:33:13;23.80;99.90
7117;DHT22;3600;48.568;7.870;2022-08-19T10:36:04;23.90;99.90
7117;DHT22;3600;48.568;7.870;2022-08-19T10:38:31;24.00;99.90
7117;DHT22;3600;48.568;7.870;2022-08-19T10:41:10;24.00;99.90
7117;DHT22;3600;48.568;7.870;2022-08-19T10:43:37;24.10;99.90
7117;DHT22;3600;48.568;7.870;2022-08-19T10:46:10;23.80;99.90
7117;DHT22;3600;48.568;7.870;2022-08-19T10:48:43;23.90;99.90
7117;DHT22;3600;48.568;7.870;2022-08-19T10:51:10;23.80;99.90
7117;DHT22;3600;48.568;7.870;2022-08-19T10:53:56;23.80;99.90
7117;DHT22;3600;48.568;7.870;2022-08-19T10:56:26;24.00;99.90
7117;DHT22;3600;48.568;7.870;2022-08-19T10:59:12;24.00;99.90
7117;DHT22;3600;48.568;7.870;2022-08-19T11:01:42;24.10;99.90
7117;DHT22;3600;48.568;7.870;2022-08-19T11:04:09;24.10;99.90
7117;DHT22;3600;48.568;7.870;2022-08-19T11:06:44;23.90;99.90
7117;DHT22;3600;48.568;7.870;2022-08-19T11:09:18;24.10;99.90
7117;DHT22;3600;48.568;7.870;2022-08-19T11:11:46;24.10;99.90
7117;DHT22;3600;48.568;7.870;2022-08-19T11:14:16;24.10;99.90
7117;DHT22;3600;48.568;7.870;2022-08-19T11:16:44;23.90;99.90
7117;DHT22;3600;48.568;7.870;2022-08-19T11:19:12;23.90;99.90
7117;DHT22;3600;48.568;7.870;2022-08-19T11:21:43;23.90;99.90
7117;DHT22;3600;48.568;7.870;2022-08-19T11:24:19;23.90;99.90
7117;DHT22;3600;48.568;7.870;2022-08-19T11:26:48;23.80;99.90
7117;DHT22;3600;48.568;7.870;2022-08-19T11:29:20;23.90;99.90
7117;DHT22;3600;48.568;7.870;2022-08-19T11:31:49;24.00;99.90
7117;DHT22;3600;48.568;7.870;2022-08-19T11:34:19;23.90;99.90
7117;DHT22;3600;48.568;7.870;2022-08-19T11:36:47;24.00;99.90
7117;DHT22;3600;48.568;7.870;2022-08-19T11:39:18;24.00;99.90
7117;DHT22;3600;48.568;7.870;2022-08-19T11:41:45;24.10;99.90
7117;DHT22;3600;48.568;7.870;2022-08-19T11:44:12;24.00;99.90
7117;DHT22;3600;48.568;7.870;2022-08-19T11:46:42;24.00;99.90
7117;DHT22;3600;48.568;7.870;2022-08-19T11:49:14;24.10;99.90
7117;DHT22;3600;48.568;7.870;2022-08-19T11:51:42;24.40;99.90
7117;DHT22;3600;48.568;7.870;2022-08-19T11:54:10;24.40;99.90
7117;DHT22;3600;48.568;7.870;2022-08-19T11:56:38;24.50;99.90
7117;DHT22;3600;48.568;7.870;2022-08-19T11:59:05;24.40;99.90
7117;DHT22;3600;48.568;7.870;2022-08-19T12:01:40;24.60;99.90
7117;DHT22;3600;48.568;7.870;2022-08-19T12:04:09;24.50;99.90
7117;DHT22;3600;48.568;7.870;2022-08-19T12:06:37;24.70;99.90
7117;DHT22;3600;48.568;7.870;2022-08-19T12:09:06;25.00;99.90
7117;DHT22;3600;48.568;7.870;2022-08-19T12:11:35;25.20;99.90
7117;DHT22;3600;48.568;7.870;2022-08-19T12:14:03;25.40;99.90
7117;DHT22;3600;48.568;7.870;2022-08-19T12:16:31;25.60;99.90
7117;DHT22;3600;48.568;7.870;2022-08-19T12:19:00;25.70;99.90
7117;DHT22;3600;48.568;7.870;2022-08-19T12:21:33;25.70;99.90
7117;DHT22;3600;48.568;7.870;2022-08-19T12:24:02;25.80;99.90
7117;DHT22;3600;48.568;7.870;2022-08-19T12:26:30;26.20;99.90
7117;DHT22;3600;48.568;7.870;2022-08-19T12:28:58;26.40;99.90
7117;DHT22;3600;48.568;7.870;2022-08-19T12:31:27;26.40;99.90
7117;DHT22;3600;48.568;7.870;2022-08-19T12:33:55;26.30;99.90
7117;DHT22;3600;48.568;7.870;2022-08-19T12:36:22;26.70;99.90
7117;DHT22;3600;48.568;7.870;2022-08-19T12:38:50;26.70;99.90
7117;DHT22;3600;48.568;7.870;2022-08-19T12:41:17;27.00;99.90
7117;DHT22;3600;48.568;7.870;2022-08-19T12:43:45;26.60;99.90
7117;DHT22;3600;48.568;7.870;2022-08-19T12:46:12;26.50;99.90
7117;DHT22;3600;48.568;7.870;2022-08-19T12:48:42;26.50;99.90
7117;DHT22;3600;48.568;7.870;2022-08-19T12:51:15;26.90;99.90
7117;DHT22;3600;48.568;7.870;2022-08-19T12:53:43;26.90;99.90
7117;DHT22;3600;48.568;7.870;2022-08-19T12:56:11;26.70;99.90
7117;DHT22;3600;48.568;7.870;2022-08-19T12:58:41;26.30;99.90
7117;DHT22;3600;48.568;7.870;2022-08-19T13:01:16;26.30;99.90
7117;DHT22;3600;48.568;7.870;2022-08-19T13:03:48;26.20;99.90
7117;DHT22;3600;48.568;7.870;2022-08-19T13:06:16;26.40;99.90
7117;DHT22;3600;48.568;7.870;2022-08-19T13:08:45;26.80;99.90
7117;DHT22;3600;48.568;7.870;2022-08-19T13:11:15;26.80;99.90
7117;DHT22;3600;48.568;7.870;2022-08-19T13:13:45;26.90;99.90
7117;DHT22;3600;48.568;7.870;2022-08-19T13:16:13;27.00;99.90
7117;DHT22;3600;48.568;7.870;2022-08-19T13:18:41;26.80;99.90
7117;DHT22;3600;48.568;7.870;2022-08-19T13:21:09;27.00;99.90
7117;DHT22;3600;48.568;7.870;2022-08-19T13:23:40;27.00;99.90
7117;DHT22;3600;48.568;7.870;2022-08-19T13:26:09;27.00;99.90
7117;DHT22;3600;48.568;7.870;2022-08-19T13:28:36;27.10;99.90
7117;DHT22;3600;48.568;7.870;2022-08-19T13:31:23;27.20;99.90
7117;DHT22;3600;48.568;7.870;2022-08-19T13:34:10;26.80;99.90
7117;DHT22;3600;48.568;7.870;2022-08-19T13:36:37;26.50;99.90
7117;DHT22;3600;48.568;7.870;2022-08-19T13:39:06;26.20;99.90
7117;DHT22;3600;48.568;7.870;2022-08-19T13:41:35;26.10;99.90
7117;DHT22;3600;48.568;7.870;2022-08-19T13:44:03;26.00;99.90
7117;DHT22;3600;48.568;7.870;2022-08-19T13:46:30;25.90;99.90
7117;DHT22;3600;48.568;7.870;2022-08-19T13:48:57;25.80;99.90
7117;DHT22;3600;48.568;7.870;2022-08-19T13:51:24;25.70;99.90
7117;DHT22;3600;48.568;7.870;2022-08-19T13:53:51;25.70;99.90
7117;DHT22;3600;48.568;7.870;2022-08-19T13:56:19;25.70;99.90
7117;DHT22;3600;48.568;7.870;2022-08-19T13:58:52;25.70;99.90
7117;DHT22;3600;48.568;7.870;2022-08-19T14:01:23;25.70;99.90
7117;DHT22;3600;48.568;7.870;2022-08-19T14:03:50;25.60;99.90
7117;DHT22;3600;48.568;7.870;2022-08-19T14:06:18;25.60;99.90
7117;DHT22;3600;48.568;7.870;2022-08-19T14:08:45;25.50;99.90
7117;DHT22;3600;48.568;7.870;2022-08-19T14:11:13;25.60;99.90
7117;DHT22;3600;48.568;7.870;2022-08-19T14:13:40;25.60;99.90
7117;DHT22;3600;48.568;7.870;2022-08-19T14:17:01;25.50;99.90
7117;DHT22;3600;48.568;7.870;2022-08-19T14:20:12;25.40;99.90
7117;DHT22;3600;48.568;7.870;2022-08-19T14:23:12;25.40;99.90
7117;DHT22;3600;48.568;7.870;2022-08-19T14:26:17;25.40;99.90
7117;DHT22;3600;48.568;7.870;2022-08-19T14:28:47;25.50;99.90
7117;DHT22;3600;48.568;7.870;2022-08-19T14:31:25;25.50;99.90
7117;DHT22;3600;48.568;7.870;2022-08-19T14:33:56;25.60;99.90
7117;DHT22;3600;48.568;7.870;2022-08-19T14:36:37;25.60;99.90
7117;DHT22;3600;48.568;7.870;2022-08-19T14:39:07;25.60;99.90
7117;DHT22;3600;48.568;7.870;2022-08-19T14:41:53;25.80;99.90
7117;DHT22;3600;48.568;7.870;2022-08-19T14:44:47;25.80;99.90
7117;DHT22;3600;48.568;7.870;2022-08-19T14:47:36;25.80;99.90
7117;DHT22;3600;48.568;7.870;2022-08-19T14:50:33;25.80;99.90
7117;DHT22;3600;48.568;7.870;2022-08-19T14:53:28;25.90;99.90
7117;DHT22;3600;48.568;7.870;2022-08-19T14:55:58;26.00;99.90
7117;DHT22;3600;48.568;7.870;2022-08-19T14:58:39;26.00;99.90
7117;DHT22;3600;48.568;7.870;2022-08-19T15:01:26;26.10;99.90
7117;DHT22;3600;48.568;7.870;2022-08-19T15:04:00;26.00;99.90
7117;DHT22;3600;48.568;7.870;2022-08-19T15:06:42;26.10;99.90
7117;DHT22;3600;48.568;7.870;2022-08-19T15:09:31;26.10;99.90
7117;DHT22;3600;48.568;7.870;2022-08-19T15:12:15;26.40;99.90
7117;DHT22;3600;48.568;7.870;2022-08-19T15:14:58;26.90;99.90
7117;DHT22;3600;48.568;7.870;2022-08-19T15:17:52;27.10;99.90
7117;DHT22;3600;48.568;7.870;2022-08-19T15:20:29;27.30;99.90
7117;DHT22;3600;48.568;7.870;2022-08-19T15:23:41;27.30;99.90
7117;DHT22;3600;48.568;7.870;2022-08-19T15:26:20;27.80;99.90
7117;DHT22;3600;48.568;7.870;2022-08-19T15:36:52;28.20;99.90
7117;DHT22;3600;48.568;7.870;2022-08-19T15:39:36;27.90;99.90
7117;DHT22;3600;48.568;7.870;2022-08-19T15:42:06;28.30;99.90
7117;DHT22;3600;48.568;7.870;2022-08-19T15:44:56;28.40;99.90
7117;DHT22;3600;48.568;7.870;2022-08-19T15:51:50;27.60;99.90
7117;DHT22;3600;48.568;7.870;2022-08-19T15:54:57;27.40;99.90
7117;DHT22;3600;48.568;7.870;2022-08-19T15:57:33;28.10;99.90
7117;DHT22;3600;48.568;7.870;2022-08-19T16:00:19;28.00;99.90
7117;DHT22;3600;48.568;7.870;2022-08-19T16:03:04;28.10;99.90
7117;DHT22;3600;48.568;7.870;2022-08-19T16:05:51;27.80;99.90
7117;DHT22;3600;48.568;7.870;2022-08-19T16:08:37;28.00;99.90
7117;DHT22;3600;48.568;7.870;2022-08-19T16:11:19;28.20;99.90
7117;DHT22;3600;48.568;7.870;2022-08-19T16:13:47;27.70;99.90
7117;DHT22;3600;48.568;7.870;2022-08-19T16:16:19;27.80;99.90
7117;DHT22;3600;48.568;7.870;2022-08-19T16:18:46;27.90;99.90
7117;DHT22;3600;48.568;7.870;2022-08-19T16:21:14;27.60;99.90
7117;DHT22;3600;48.568;7.870;2022-08-19T16:23:44;27.50;99.90
7117;DHT22;3600;48.568;7.870;2022-08-19T16:26:13;27.50;99.90
7117;DHT22;3600;48.568;7.870;2022-08-19T16:28:42;27.10;99.90
7117;DHT22;3600;48.568;7.870;2022-08-19T16:31:11;27.40;99.90
7117;DHT22;3600;48.568;7.870;2022-08-19T16:33:39;27.50;99.70
7117;DHT22;3600;48.568;7.870;2022-08-19T16:36:06;27.10;99.90
7117;DHT22;3600;48.568;7.870;2022-08-19T16:38:35;27.30;99.90
7117;DHT22;3600;48.568;7.870;2022-08-19T16:41:04;27.50;99.60
7117;DHT22;3600;48.568;7.870;2022-08-19T16:43:32;27.50;99.70
7117;DHT22;3600;48.568;7.870;2022-08-19T16:46:00;27.50;99.30
7117;DHT22;3600;48.568;7.870;2022-08-19T16:48:29;27.40;99.20
7117;DHT22;3600;48.568;7.870;2022-08-19T16:50:56;27.30;99.00